Aviation Digital Data Service (ADDS)

Output produced by METARs form (1429 UTC 20 July 2019)
found at http://www.aviationweather.gov/metar/data/
 
TAF LHPP 201415Z 2015/2024 20007KT CAVOK